createdAt,value
2023-05-25T00:06:18.938Z,8.61
2023-05-25T00:16:48.808Z,8.43
2023-05-25T00:27:56.741Z,8.18
2023-05-25T00:38:30.549Z,7.96
2023-05-25T00:48:59.607Z,7.71
2023-05-25T00:59:36.399Z,7.60
2023-05-25T01:10:50.306Z,7.75
2023-05-25T01:21:53.629Z,7.83
2023-05-25T01:32:32.988Z,7.79
2023-05-25T01:43:00.745Z,7.55
2023-05-25T01:53:40.035Z,7.38
2023-05-25T02:04:26.743Z,7.16
2023-05-25T02:14:58.192Z,6.93
2023-05-25T02:25:30.610Z,6.61
2023-05-25T02:35:58.422Z,6.60
2023-05-25T02:47:05.257Z,6.67
2023-05-25T02:58:01.448Z,6.75
2023-05-25T03:09:24.211Z,6.90
2023-05-25T03:20:11.059Z,7.06
2023-05-25T03:30:49.326Z,7.14
2023-05-25T03:41:18.288Z,7.36
2023-05-25T03:52:04.264Z,7.66
2023-05-25T04:02:32.006Z,8.05
2023-05-25T04:13:06.730Z,8.44
2023-05-25T04:23:35.715Z,8.95
2023-05-25T04:34:22.097Z,9.26
2023-05-25T04:45:17.817Z,9.43
2023-05-25T04:56:42.388Z,9.65
2023-05-25T05:07:48.230Z,9.98
2023-05-25T05:18:29.940Z,10.33
2023-05-25T05:39:58.656Z,10.88
2023-05-25T05:50:50.721Z,11.18
2023-05-25T06:01:40.163Z,11.54
2023-05-25T06:12:37.982Z,11.99
2023-05-25T06:23:26.616Z,12.39
2023-05-25T06:34:04.414Z,12.70
2023-05-25T06:44:52.268Z,13.25
2023-05-25T06:55:30.932Z,13.63
2023-05-25T07:06:38.392Z,14.02
2023-05-25T07:18:12.921Z,14.29
2023-05-25T07:29:27.366Z,14.57
2023-05-25T07:40:30.085Z,14.86
2023-05-25T07:51:04.049Z,15.21
2023-05-25T08:01:50.585Z,15.54
2023-05-25T08:12:34.271Z,16.11
2023-05-25T08:23:30.612Z,16.57
2023-05-25T08:33:58.874Z,17.35
2023-05-25T08:44:42.509Z,17.54
2023-05-25T08:55:49.501Z,18.49
2023-05-25T09:19:18.016Z,19.05
2023-05-25T09:29:44.686Z,19.14
2023-05-25T09:40:35.322Z,19.79
2023-05-25T09:51:50.648Z,19.77
2023-05-25T10:02:39.699Z,20.20
2023-05-25T10:13:08.772Z,20.01
2023-05-25T10:23:49.978Z,20.16
2023-05-25T10:34:18.380Z,20.83
2023-05-25T10:44:44.407Z,20.50
2023-05-25T10:55:28.388Z,20.37
2023-05-25T11:06:10.748Z,20.64
2023-05-25T11:17:33.235Z,21.09
2023-05-25T11:28:19.087Z,21.41
2023-05-25T11:38:56.605Z,21.75
2023-05-25T11:49:52.620Z,21.71
2023-05-25T12:00:58.507Z,21.61
2023-05-25T12:11:34.833Z,22.22
2023-05-25T12:22:16.697Z,22.40
2023-05-25T12:33:04.062Z,21.73
2023-05-25T12:43:57.922Z,21.92
2023-05-25T12:54:45.817Z,22.12
2023-05-25T13:05:22.472Z,22.40
2023-05-25T13:15:47.724Z,22.68
2023-05-25T13:26:13.214Z,23.26
2023-05-25T13:36:44.670Z,23.65
2023-05-25T13:47:22.728Z,24.11
2023-05-25T13:57:46.812Z,23.96
2023-05-25T14:08:13.064Z,23.52
2023-05-25T14:18:37.897Z,23.66
2023-05-25T14:29:02.350Z,23.86
2023-05-25T14:39:27.134Z,24.48
2023-05-25T14:49:51.906Z,25.11
2023-05-25T15:00:16.370Z,24.82
2023-05-25T15:10:42.088Z,24.54
2023-05-25T15:21:06.996Z,23.85
2023-05-25T15:31:31.759Z,23.52
2023-05-25T15:41:56.693Z,23.50
2023-05-25T15:52:21.410Z,22.68
2023-05-25T16:02:45.920Z,22.48
2023-05-25T16:13:10.950Z,22.83
2023-05-25T16:23:35.515Z,23.16
2023-05-25T16:34:00.036Z,22.67
2023-05-25T16:44:25.197Z,22.77
2023-05-25T16:54:49.789Z,22.79
2023-05-25T17:05:14.019Z,22.87
2023-05-25T17:15:38.455Z,23.35
2023-05-25T17:26:03.950Z,23.22
2023-05-25T17:36:27.897Z,23.67
2023-05-25T17:46:53.601Z,23.25
2023-05-25T17:57:18.748Z,23.71
2023-05-25T18:07:42.861Z,24.70
2023-05-25T18:18:09.074Z,24.89
2023-05-25T18:28:34.053Z,23.90
2023-05-25T18:38:58.440Z,22.74
2023-05-25T18:49:24.366Z,21.33
2023-05-25T18:59:48.971Z,20.37
2023-05-25T19:10:13.075Z,19.79
2023-05-25T19:20:38.155Z,19.20
2023-05-25T19:31:03.384Z,18.60
2023-05-25T19:41:28.054Z,18.16
2023-05-25T19:51:52.968Z,17.83
2023-05-25T20:02:18.015Z,17.39
2023-05-25T20:12:42.363Z,17.04
2023-05-25T20:23:07.744Z,16.65
2023-05-25T20:33:32.805Z,16.13
2023-05-25T20:43:57.512Z,15.49
2023-05-25T20:54:22.808Z,15.03
2023-05-25T21:04:48.008Z,14.79
2023-05-25T21:15:12.189Z,14.55
2023-05-25T21:25:37.228Z,14.38
2023-05-25T21:36:03.236Z,14.15
2023-05-25T21:46:27.432Z,13.87
2023-05-25T21:56:52.508Z,13.72
2023-05-25T22:07:17.228Z,13.63
2023-05-25T22:17:41.110Z,13.45
2023-05-25T22:28:06.506Z,13.18
2023-05-25T22:38:31.200Z,12.98
2023-05-25T22:48:55.461Z,12.92
2023-05-25T22:59:20.211Z,12.87
2023-05-25T23:09:45.106Z,12.70
2023-05-25T23:20:09.628Z,12.58
2023-05-25T23:30:34.510Z,12.45
2023-05-25T23:40:59.133Z,12.32
2023-05-25T23:51:22.916Z,12.23
